Time;durP1;ratioP1;P1;durP2;ratioP2;P2;SDS_P1;SDS_P2;PMS_P1;PMS_P2;Temp;Humidity;BMP_temperature;BMP_pressure;BME280_temperature;BME280_humidity;BME280_pressure;Samples;Min_cycle;Max_cycle;Signal;HPM_P1;HPM_P2
2023/12/27 00:01:51;;;;;;;;;;;;;;;-144.99;100.00;52651.94;5104545;28;19965;-71
2023/12/27 00:04:19;;;;;;;;;;;;;;;-144.99;100.00;52684.53;5098101;28;19950;-70
2023/12/27 00:06:45;;;;;;;;;;;;;;;-144.99;100.00;52613.19;5083502;28;19927;-71
2023/12/27 00:09:12;;;;;;;;;;;;;;;-144.99;100.00;52619.31;5080096;28;19979;-71
2023/12/27 00:11:40;;;;;;;;;;;;;;;-144.99;100.00;52639.69;5079223;28;19991;-71
2023/12/27 00:14:06;;;;;;;;;;;;;;;-144.99;100.00;52627.47;5085590;28;19967;-70
2023/12/27 00:16:33;;;;;;;;;;;;;;;-144.99;100.00;52611.16;5089167;28;20268;-70
2023/12/27 00:18:59;;;;;;;;;;;;;;;-144.99;100.00;52668.22;5078363;28;20030;-70
2023/12/27 00:21:25;;;;;;;;;;;;;;;-144.99;100.00;52664.16;5087833;28;19938;-71
2023/12/27 00:23:52;;;;;;;;;;;;;;;-144.99;100.00;52631.53;5087612;28;20022;-71
2023/12/27 00:26:18;;;;;;;;;;;;;;;-144.99;100.00;52637.66;5084956;28;19924;-72
2023/12/27 00:28:46;;;;;;;;;;;;;;;-144.99;100.00;52635.63;5077640;28;19977;-71
2023/12/27 00:31:13;;;;;;;;;;;;;;;-144.99;100.00;52660.09;5080754;28;19981;-71
2023/12/27 00:33:39;;;;;;;;;;;;;;;-144.99;100.00;52615.25;5089019;28;19947;-71
2023/12/27 00:36:06;;;;;;;;;;;;;;;-144.99;100.00;52647.84;5087075;28;20114;-73
2023/12/27 00:38:33;;;;;;;;;;;;;;;-144.99;100.00;52623.38;5090054;28;19928;-74
2023/12/27 00:41:00;;;;;;;;;;;;;;;-144.99;100.00;52668.22;5088805;28;19977;-74
2023/12/27 00:43:27;;;;;;;;;;;;;;;-144.99;100.00;52627.47;5082282;28;20402;-74
2023/12/27 00:45:55;;;;;;;;;;;;;;;-144.99;100.00;52635.63;5078147;28;20072;-74
2023/12/27 00:48:21;;;;;;;;;;;;;;;-144.99;100.00;52645.81;5088016;28;19928;-74
2023/12/27 00:50:48;;;;;;;;;;;;;;;-144.99;100.00;52623.38;5079330;28;20061;-74
2023/12/27 00:53:14;;;;;;;;;;;;;;;-144.99;100.00;52615.25;5080872;28;19924;-75
2023/12/27 00:55:41;;;;;;;;;;;;;;;-144.99;100.00;52635.63;5087784;28;20023;-70
2023/12/27 00:58:07;;;;;;;;;;;;;;;-144.99;100.00;52660.09;5080105;28;20014;-70
2023/12/27 01:00:34;;;;;;;;;;;;;;;-144.99;100.00;52658.03;5085621;28;19990;-70
2023/12/27 01:03:02;;;;;;;;;;;;;;;-144.99;100.00;52615.25;5080911;28;19970;-70
2023/12/27 01:05:28;;;;;;;;;;;;;;;-144.99;100.00;52641.72;5076040;28;19959;-69
2023/12/27 01:07:55;;;;;;;;;;;;;;;-144.99;100.00;52676.38;5082528;28;19970;-72
2023/12/27 01:10:21;;;;;;;;;;;;;;;-144.99;100.00;52639.69;5081126;28;19927;-74
2023/12/27 01:12:48;;;;;;;;;;;;;;;-144.99;100.00;52627.47;5085942;28;20014;-74
2023/12/27 01:15:15;;;;;;;;;;;;;;;-144.99;100.00;52631.53;5081885;28;20462;-74
2023/12/27 01:17:41;;;;;;;;;;;;;;;-144.99;100.00;52611.16;5088440;28;20397;-74
2023/12/27 01:20:10;;;;;;;;;;;;;;;-144.99;100.00;52627.47;5078487;28;20367;-74
2023/12/27 01:22:36;;;;;;;;;;;;;;;-144.99;100.00;52651.94;5080508;28;19928;-74
2023/12/27 01:25:03;;;;;;;;;;;;;;;-144.99;100.00;52641.72;5079297;28;19928;-74
2023/12/27 01:27:29;;;;;;;;;;;;;;;-144.99;100.00;52594.84;5083418;28;20386;-74
2023/12/27 01:29:56;;;;;;;;;;;;;;;-144.99;100.00;52615.25;5077417;28;19991;-73
2023/12/27 01:32:22;;;;;;;;;;;;;;;-144.99;100.00;52643.78;5082683;28;20028;-73
2023/12/27 01:34:49;;;;;;;;;;;;;;;-144.99;100.00;52647.84;5084963;28;19956;-72
2023/12/27 01:37:17;;;;;;;;;;;;;;;-144.99;100.00;52647.84;5084597;28;19932;-73
2023/12/27 01:39:43;;;;;;;;;;;;;;;-144.99;100.00;52615.25;5078908;28;20029;-74
2023/12/27 01:42:10;;;;;;;;;;;;;;;-144.99;100.00;52643.78;5086527;28;20495;-72
2023/12/27 01:44:36;;;;;;;;;;;;;;;-144.99;100.00;52617.28;5085435;28;20329;-73
2023/12/27 01:47:03;;;;;;;;;;;;;;;-144.99;100.00;52615.25;5080417;28;20058;-72
2023/12/27 01:49:29;;;;;;;;;;;;;;;-144.99;100.00;52639.69;5088554;28;20023;-72
2023/12/27 01:51:56;;;;;;;;;;;;;;;-144.99;100.00;52621.34;4733335;28;9999644;-72
2023/12/27 01:54:23;;;;;;;;;;;;;;;-144.99;100.00;52668.22;5084008;28;20011;-73
2023/12/27 01:56:51;;;;;;;;;;;;;;;-144.99;100.00;52647.84;5087016;28;19939;-73
2023/12/27 01:59:17;;;;;;;;;;;;;;;-144.99;100.00;52702.88;5087704;28;20020;-72
2023/12/27 02:01:44;;;;;;;;;;;;;;;-144.99;100.00;52676.38;5088103;28;20007;-71
2023/12/27 02:04:11;;;;;;;;;;;;;;;-144.99;100.00;52623.38;5089251;28;20022;-71
2023/12/27 02:06:37;;;;;;;;;;;;;;;-144.99;100.00;52668.22;5091704;28;19960;-72
2023/12/27 02:09:04;;;;;;;;;;;;;;;-144.99;100.00;52643.78;5078609;28;19994;-72
2023/12/27 02:11:32;;;;;;;;;;;;;;;-144.99;100.00;52662.13;5091016;28;20445;-72
2023/12/27 02:13:59;;;;;;;;;;;;;;;-144.99;100.00;52582.63;5082834;28;20060;-71
2023/12/27 02:16:25;;;;;;;;;;;;;;;-144.99;100.00;52660.09;5089875;28;19928;-71
2023/12/27 02:18:52;;;;;;;;;;;;;;;-144.99;100.00;52631.53;5107177;28;19924;-72
2023/12/27 02:21:19;;;;;;;;;;;;;;;-144.99;100.00;52658.03;5102355;28;19952;-72
2023/12/27 02:23:46;;;;;;;;;;;;;;;-144.99;100.00;52662.13;5101043;28;19997;-71
2023/12/27 02:26:14;;;;;;;;;;;;;;;-144.99;100.00;52651.94;5097078;28;20019;-71
2023/12/27 02:28:41;;;;;;;;;;;;;;;-144.99;100.00;52656.00;5089043;28;20043;-71
2023/12/27 02:31:07;;;;;;;;;;;;;;;-144.99;100.00;52647.84;5077984;28;20390;-72
2023/12/27 02:33:34;;;;;;;;;;;;;;;-144.99;100.00;52660.09;5088184;28;19964;-72
2023/12/27 02:36:00;;;;;;;;;;;;;;;-144.99;100.00;52643.78;5083229;28;19925;-71
2023/12/27 02:38:27;;;;;;;;;;;;;;;-144.99;100.00;52623.38;5090560;28;20330;-72
2023/12/27 02:40:55;;;;;;;;;;;;;;;-144.99;100.00;52649.88;5085120;28;20325;-72
2023/12/27 02:43:23;;;;;;;;;;;;;;;-144.99;100.00;52637.66;5085842;28;20114;-72
2023/12/27 02:45:51;;;;;;;;;;;;;;;-144.99;100.00;52664.16;5077382;28;20413;-72
2023/12/27 02:48:18;;;;;;;;;;;;;;;-144.99;100.00;52672.31;5083640;28;20018;-72
2023/12/27 02:50:44;;;;;;;;;;;;;;;-144.99;100.00;52611.16;5077642;28;20445;-72
2023/12/27 02:53:11;;;;;;;;;;;;;;;-144.99;100.00;52692.69;5091093;28;19928;-72
2023/12/27 02:55:37;;;;;;;;;;;;;;;-144.99;100.00;52631.53;5090094;28;19992;-68
2023/12/27 02:58:04;;;;;;;;;;;;;;;-144.99;100.00;52615.25;5088901;28;19938;-69
2023/12/27 03:00:35;;;;;;;;;;;;;;;-144.99;100.00;52621.34;5081976;28;19924;-70
2023/12/27 03:03:02;;;;;;;;;;;;;;;-144.99;100.00;52684.53;5081357;28;19925;-70
2023/12/27 03:05:28;;;;;;;;;;;;;;;-144.99;100.00;52664.16;5088992;28;20269;-69
2023/12/27 03:07:55;;;;;;;;;;;;;;;-144.99;100.00;52647.84;5084976;28;19995;-69
2023/12/27 03:10:21;;;;;;;;;;;;;;;-144.99;100.00;52680.47;5087365;28;19959;-69
2023/12/27 03:12:48;;;;;;;;;;;;;;;-144.99;100.00;52649.88;5079558;28;19928;-69
2023/12/27 03:15:14;;;;;;;;;;;;;;;-144.99;100.00;52651.94;5082779;28;19985;-69
2023/12/27 03:17:42;;;;;;;;;;;;;;;-144.99;100.00;52676.38;5082295;28;19928;-69
2023/12/27 03:20:09;;;;;;;;;;;;;;;-144.99;100.00;52664.16;5079972;28;20393;-69
2023/12/27 03:22:36;;;;;;;;;;;;;;;-144.99;100.00;52660.09;5086965;28;19932;-69
2023/12/27 03:25:03;;;;;;;;;;;;;;;-144.99;100.00;52635.63;5082301;28;20237;-69
2023/12/27 03:27:30;;;;;;;;;;;;;;;-144.99;100.00;52684.53;5060266;28;19931;-68
2023/12/27 03:29:56;;;;;;;;;;;;;;;-144.99;100.00;52676.38;5084820;28;19975;-69
2023/12/27 03:32:23;;;;;;;;;;;;;;;-144.99;100.00;52676.38;5074470;28;20077;-69
2023/12/27 03:34:51;;;;;;;;;;;;;;;-144.99;100.00;52668.22;5085798;28;19924;-69
2023/12/27 03:37:18;;;;;;;;;;;;;;;-144.99;100.00;52635.63;5084958;28;20015;-69
2023/12/27 03:39:46;;;;;;;;;;;;;;;-144.99;100.00;52641.72;5091737;28;19959;-69
2023/12/27 03:42:14;;;;;;;;;;;;;;;-144.99;100.00;52670.28;5111168;22;19923;-64
2023/12/27 03:44:41;;;;;;;;;;;;;;;-144.99;100.00;52639.69;5092014;28;20377;-67
2023/12/27 03:47:07;;;;;;;;;;;;;;;-144.99;100.00;52635.63;5108780;28;19932;-66
2023/12/27 03:49:34;;;;;;;;;;;;;;;-144.99;100.00;52647.84;5099822;28;19963;-66
2023/12/27 03:52:02;;;;;;;;;;;;;;;-144.99;100.00;52672.31;5108140;28;19924;-66
2023/12/27 03:54:28;;;;;;;;;;;;;;;-144.99;100.00;52651.94;5110277;28;19928;-66
2023/12/27 03:56:55;;;;;;;;;;;;;;;-144.99;100.00;52647.84;5099833;28;20022;-65
2023/12/27 03:59:21;;;;;;;;;;;;;;;-144.99;100.00;52668.22;5102948;28;20440;-67
2023/12/27 04:01:47;;;;;;;;;;;;;;;-144.99;100.00;52676.38;5103255;28;20019;-66
2023/12/27 04:04:15;;;;;;;;;;;;;;;-144.99;100.00;52633.59;5105813;28;20389;-65
2023/12/27 04:06:42;;;;;;;;;;;;;;;-144.99;100.00;52676.38;5102366;28;19924;-64
2023/12/27 04:09:10;;;;;;;;;;;;;;;-144.99;100.00;52672.31;5110662;28;19978;-63
2023/12/27 04:11:43;;;;;;;;;;;;;;;-144.99;100.00;52619.31;5102049;28;19962;-65
2023/12/27 04:14:09;;;;;;;;;;;;;;;-144.99;100.00;52684.53;5096580;28;20381;-62
2023/12/27 04:16:36;;;;;;;;;;;;;;;-144.99;100.00;52647.84;5108698;28;19931;-62
2023/12/27 04:19:03;;;;;;;;;;;;;;;-144.99;100.00;52651.94;5101226;28;21258;-63
2023/12/27 04:21:29;;;;;;;;;;;;;;;-144.99;100.00;52666.19;5108932;28;19978;-66
2023/12/27 04:23:56;;;;;;;;;;;;;;;-144.99;100.00;52680.47;5108811;28;20381;-66
2023/12/27 04:26:24;;;;;;;;;;;;;;;-144.99;100.00;52637.66;5099657;28;19923;-70
2023/12/27 04:28:50;;;;;;;;;;;;;;;-144.99;100.00;52660.09;5098271;28;19927;-69
2023/12/27 04:31:17;;;;;;;;;;;;;;;-144.99;100.00;52641.72;5107248;28;20027;-68
2023/12/27 04:33:42;;;;;;;;;;;;;;;-144.99;100.00;52631.53;5109224;28;20317;-70
2023/12/27 04:36:09;;;;;;;;;;;;;;;-144.99;100.00;52629.50;5102982;28;20001;-65
2023/12/27 04:38:35;;;;;;;;;;;;;;;-144.99;100.00;52643.78;5094110;28;19935;-65
2023/12/27 04:41:06;;;;;;;;;;;;;;;-144.99;100.00;52615.25;5098630;28;19934;-62
2023/12/27 04:43:34;;;;;;;;;;;;;;;-144.99;100.00;52664.16;5106897;28;20357;-64
2023/12/27 04:46:02;;;;;;;;;;;;;;;-144.99;100.00;52641.72;5106937;28;19984;-65
2023/12/27 04:48:29;;;;;;;;;;;;;;;-144.99;100.00;52656.00;5113460;28;20282;-64
2023/12/27 04:50:55;;;;;;;;;;;;;;;-144.99;100.00;52664.16;5102991;28;20036;-63
2023/12/27 04:53:22;;;;;;;;;;;;;;;-144.99;100.00;52651.94;5107638;28;19963;-65
2023/12/27 04:55:48;;;;;;;;;;;;;;;-144.99;100.00;52660.09;5100758;28;19932;-65
2023/12/27 04:58:15;;;;;;;;;;;;;;;-144.99;100.00;52666.19;5096752;28;20030;-68
2023/12/27 05:00:42;;;;;;;;;;;;;;;-144.99;100.00;52643.78;5101670;28;20361;-67
2023/12/27 05:03:09;;;;;;;;;;;;;;;-144.99;100.00;52656.00;5108890;28;19978;-67
2023/12/27 05:05:36;;;;;;;;;;;;;;;-144.99;100.00;52647.84;5101379;28;20027;-67
2023/12/27 05:08:03;;;;;;;;;;;;;;;-144.99;100.00;52643.78;5097973;28;19935;-73
2023/12/27 05:10:29;;;;;;;;;;;;;;;-144.99;100.00;52643.78;5106554;28;19934;-72
2023/12/27 05:12:56;;;;;;;;;;;;;;;-144.99;100.00;52660.09;5105164;28;20016;-72
2023/12/27 05:15:22;;;;;;;;;;;;;;;-144.99;100.00;52676.38;5111483;28;19927;-71
2023/12/27 05:17:50;;;;;;;;;;;;;;;-144.99;100.00;52609.13;5099302;28;19932;-75
2023/12/27 05:20:17;;;;;;;;;;;;;;;-144.99;100.00;52651.94;5110157;28;20297;-63
2023/12/27 05:22:44;;;;;;;;;;;;;;;-144.99;100.00;52639.69;5102499;28;20364;-65
2023/12/27 05:25:11;;;;;;;;;;;;;;;-144.99;100.00;52664.16;5111177;28;19928;-67
2023/12/27 05:27:38;;;;;;;;;;;;;;;-144.99;100.00;52656.00;5104285;28;20370;-64
2023/12/27 05:30:05;;;;;;;;;;;;;;;-144.99;100.00;52656.00;5097896;28;20005;-63
2023/12/27 05:32:32;;;;;;;;;;;;;;;-144.99;100.00;52676.38;5096531;28;19928;-63
2023/12/27 05:35:00;;;;;;;;;;;;;;;-144.99;100.00;52633.59;5100098;28;19955;-66
2023/12/27 05:37:26;;;;;;;;;;;;;;;-144.99;100.00;52643.78;5104077;28;20360;-65
2023/12/27 05:39:53;;;;;;;;;;;;;;;-144.99;100.00;52653.97;5103656;28;19962;-65
2023/12/27 05:42:19;;;;;;;;;;;;;;;-144.99;100.00;52643.78;5108684;28;19928;-70
2023/12/27 05:44:45;;;;;;;;;;;;;;;-144.99;100.00;52623.38;5101065;28;19978;-70
2023/12/27 05:47:12;;;;;;;;;;;;;;;-144.99;100.00;52656.00;5105004;28;20006;-70
2023/12/27 05:49:38;;;;;;;;;;;;;;;-144.99;100.00;52682.50;5104423;28;19955;-69
2023/12/27 05:52:07;;;;;;;;;;;;;;;-144.99;100.00;52656.00;5098397;28;19967;-70
2023/12/27 05:54:34;;;;;;;;;;;;;;;-144.99;100.00;52635.63;5103932;28;19924;-69
2023/12/27 05:57:00;;;;;;;;;;;;;;;-144.99;100.00;52643.78;5108363;28;20020;-70
2023/12/27 05:59:26;;;;;;;;;;;;;;;-144.99;100.00;52643.78;5110184;28;19985;-70
2023/12/27 06:01:54;;;;;;;;;;;;;;;-144.99;100.00;52627.47;5107794;28;19956;-71
2023/12/27 06:04:21;;;;;;;;;;;;;;;-144.99;100.00;52666.19;5104497;28;19954;-69
2023/12/27 06:06:49;;;;;;;;;;;;;;;-144.99;100.00;52643.78;5096672;28;20047;-71
2023/12/27 06:09:16;;;;;;;;;;;;;;;-144.99;100.00;52625.44;5104971;28;19927;-71
2023/12/27 06:11:43;;;;;;;;;;;;;;;-144.99;100.00;52627.47;5118173;28;19931;-70
2023/12/27 06:14:10;;;;;;;;;;;;;;;-144.99;100.00;52647.84;5096606;28;20381;-66
2023/12/27 06:16:36;;;;;;;;;;;;;;;-144.99;100.00;52651.94;5100156;28;20444;-66
2023/12/27 06:19:03;;;;;;;;;;;;;;;-144.99;100.00;52692.69;5106727;28;20411;-65
2023/12/27 06:21:29;;;;;;;;;;;;;;;-144.99;100.00;52651.94;5102334;28;20350;-66
2023/12/27 06:23:56;;;;;;;;;;;;;;;-144.99;100.00;52647.84;5094841;28;19970;-65
2023/12/27 06:26:24;;;;;;;;;;;;;;;-144.99;100.00;52631.53;5100633;28;19958;-65
2023/12/27 06:28:50;;;;;;;;;;;;;;;-144.99;100.00;52621.34;5106247;28;20366;-65
2023/12/27 06:31:17;;;;;;;;;;;;;;;-144.99;100.00;52664.16;5096207;28;20352;-70
2023/12/27 06:33:43;;;;;;;;;;;;;;;-144.99;100.00;52668.22;4396447;27;10000714;-71
2023/12/27 06:36:10;;;;;;;;;;;;;;;-144.99;100.00;52619.31;5099265;28;20464;-71
2023/12/27 06:38:36;;;;;;;;;;;;;;;-144.99;100.00;52660.09;5102125;28;19928;-72
2023/12/27 06:41:03;;;;;;;;;;;;;;;-144.99;100.00;52639.69;5101420;28;20014;-70
2023/12/27 06:43:31;;;;;;;;;;;;;;;-144.99;100.00;52635.63;5090217;28;20612;-70
2023/12/27 06:45:57;;;;;;;;;;;;;;;-144.99;100.00;52645.81;5093648;28;20012;-70
2023/12/27 06:48:24;;;;;;;;;;;;;;;-144.99;100.00;52643.78;5101968;28;19980;-69
2023/12/27 06:50:50;;;;;;;;;;;;;;;-144.99;100.00;52662.13;5101537;28;20002;-70
2023/12/27 06:53:17;;;;;;;;;;;;;;;-144.99;100.00;52656.00;5094179;28;20165;-70
2023/12/27 06:55:43;;;;;;;;;;;;;;;-144.99;100.00;52619.31;5096907;28;20004;-70
2023/12/27 06:58:10;;;;;;;;;;;;;;;-144.99;100.00;52627.47;5106188;28;20058;-70
2023/12/27 07:00:38;;;;;;;;;;;;;;;-144.99;100.00;52635.63;5104746;28;20006;-70
2023/12/27 07:03:05;;;;;;;;;;;;;;;-144.99;100.00;52619.31;5101266;28;19932;-70
2023/12/27 07:05:31;;;;;;;;;;;;;;;-144.99;100.00;52647.84;5090881;28;19932;-70
2023/12/27 07:07:57;;;;;;;;;;;;;;;-144.99;100.00;52639.69;5095174;28;19935;-70
2023/12/27 07:10:24;;;;;;;;;;;;;;;-144.99;100.00;52690.66;5105999;28;19934;-70
2023/12/27 07:12:50;;;;;;;;;;;;;;;-144.99;100.00;52623.38;5101238;28;20010;-70
2023/12/27 07:15:17;;;;;;;;;;;;;;;-144.99;100.00;52641.72;5099509;28;20110;-70
2023/12/27 07:17:45;;;;;;;;;;;;;;;-144.99;100.00;52664.16;5106985;28;19928;-72
2023/12/27 07:20:12;;;;;;;;;;;;;;;-144.99;100.00;52639.69;5103753;28;20052;-71
2023/12/27 07:22:38;;;;;;;;;;;;;;;-144.99;100.00;52623.38;5098431;28;20373;-70
2023/12/27 07:25:05;;;;;;;;;;;;;;;-144.99;100.00;52621.34;5105035;28;20035;-71
2023/12/27 07:27:32;;;;;;;;;;;;;;;-144.99;100.00;52647.84;5103495;28;19993;-70
2023/12/27 07:29:58;;;;;;;;;;;;;;;-144.99;100.00;52664.16;5104453;28;19958;-70
2023/12/27 07:32:25;;;;;;;;;;;;;;;-144.99;100.00;52651.94;5115263;28;19936;-70
2023/12/27 07:34:57;;;;;;;;;;;;;;;-144.99;100.00;52627.47;5107161;28;19931;-70
2023/12/27 07:37:24;;;;;;;;;;;;;;;-144.99;100.00;52692.69;5095737;28;19923;-70
2023/12/27 07:39:50;;;;;;;;;;;;;;;-144.99;100.00;52651.94;5097326;28;20429;-71
2023/12/27 07:42:17;;;;;;;;;;;;;;;-144.99;100.00;52613.19;5096165;28;20266;-71
2023/12/27 07:44:43;;;;;;;;;;;;;;;-144.99;100.00;52653.97;5089169;28;19935;-70
2023/12/27 07:47:10;;;;;;;;;;;;;;;-144.99;100.00;52692.69;5104611;28;20020;-71
2023/12/27 07:49:35;;;;;;;;;;;;;;;-144.99;100.00;52603.00;5091992;28;20430;-71
2023/12/27 07:52:03;;;;;;;;;;;;;;;-144.99;100.00;52639.69;5099247;28;20003;-70
2023/12/27 07:54:31;;;;;;;;;;;;;;;-144.99;100.00;52672.31;5093969;28;20002;-71
2023/12/27 07:56:57;;;;;;;;;;;;;;;-144.99;100.00;52651.94;5088722;28;20275;-70
2023/12/27 07:59:24;;;;;;;;;;;;;;;-144.99;100.00;52688.63;4748598;28;9999769;-71
2023/12/27 08:01:51;;;;;;;;;;;;;;;-144.99;100.00;52651.94;5092906;28;19971;-70
2023/12/27 08:04:17;;;;;;;;;;;;;;;-144.99;100.00;52674.34;5105971;28;19955;-70
2023/12/27 08:06:45;;;;;;;;;;;;;;;-144.99;100.00;52605.03;5094538;28;19928;-70
2023/12/27 08:09:13;;;;;;;;;;;;;;;-144.99;100.00;52615.25;5102845;28;19928;-70
2023/12/27 08:11:40;;;;;;;;;;;;;;;-144.99;100.00;52643.78;5110865;28;20460;-71
2023/12/27 08:14:06;;;;;;;;;;;;;;;-144.99;100.00;52682.50;5096240;28;19974;-71
2023/12/27 08:16:33;;;;;;;;;;;;;;;-144.99;100.00;52635.63;5093851;28;20010;-70
2023/12/27 08:18:59;;;;;;;;;;;;;;;-144.99;100.00;52635.63;5100002;28;20400;-70
2023/12/27 08:21:25;;;;;;;;;;;;;;;-144.99;100.00;52647.84;5089431;28;20021;-70
2023/12/27 08:23:53;;;;;;;;;;;;;;;-144.99;100.00;52643.78;5099322;28;20433;-71
2023/12/27 08:26:20;;;;;;;;;;;;;;;-144.99;100.00;52674.34;5102667;28;20373;-71
2023/12/27 08:28:47;;;;;;;;;;;;;;;-144.99;100.00;52647.84;5090185;28;19928;-70
2023/12/27 08:31:14;;;;;;;;;;;;;;;-144.99;100.00;52676.38;5104458;28;20214;-70
2023/12/27 08:33:40;;;;;;;;;;;;;;;-144.99;100.00;52635.63;5098840;28;19971;-70
2023/12/27 08:36:07;;;;;;;;;;;;;;;-144.99;100.00;52643.78;5104744;28;19998;-70
2023/12/27 08:38:34;;;;;;;;;;;;;;;-144.99;100.00;52609.13;5088924;28;19975;-70
2023/12/27 08:41:02;;;;;;;;;;;;;;;-144.99;100.00;52639.69;5087650;28;20406;-70
2023/12/27 08:43:30;;;;;;;;;;;;;;;-144.99;100.00;52668.22;5084924;28;19935;-70
2023/12/27 08:45:57;;;;;;;;;;;;;;;-144.99;100.00;52639.69;5096908;28;19924;-70
2023/12/27 08:48:23;;;;;;;;;;;;;;;-144.99;100.00;52613.19;5098063;28;19971;-70
2023/12/27 08:50:50;;;;;;;;;;;;;;;-144.99;100.00;52664.16;5095514;28;19990;-71
2023/12/27 08:53:16;;;;;;;;;;;;;;;-144.99;100.00;52598.94;5103298;28;19946;-71
2023/12/27 08:55:43;;;;;;;;;;;;;;;-144.99;100.00;52649.88;5097310;28;19967;-70
2023/12/27 08:58:12;;;;;;;;;;;;;;;-144.99;100.00;52633.59;5099902;28;20382;-70
2023/12/27 09:00:41;;;;;;;;;;;;;;;-144.99;100.00;52656.00;5098014;28;19927;-71
2023/12/27 09:03:07;;;;;;;;;;;;;;;-144.99;100.00;52623.38;5100867;28;19988;-71
2023/12/27 09:05:33;;;;;;;;;;;;;;;-144.99;100.00;52611.16;5094969;28;20266;-70
2023/12/27 09:08:00;;;;;;;;;;;;;;;-144.99;100.00;52623.38;5093587;28;19971;-69
2023/12/27 09:10:26;;;;;;;;;;;;;;;-144.99;100.00;52627.47;5092696;28;19981;-71
2023/12/27 09:12:53;;;;;;;;;;;;;;;-144.99;100.00;52598.94;5097233;28;20373;-70
2023/12/27 09:15:19;;;;;;;;;;;;;;;-144.99;100.00;52641.72;5090813;28;20086;-71
2023/12/27 09:17:47;;;;;;;;;;;;;;;-144.99;100.00;52594.84;5095713;28;20034;-72
2023/12/27 09:20:14;;;;;;;;;;;;;;;-144.99;100.00;52635.63;5100125;28;20366;-70
2023/12/27 09:22:41;;;;;;;;;;;;;;;-144.99;100.00;52645.81;5089634;28;19927;-71
2023/12/27 09:25:07;;;;;;;;;;;;;;;-144.99;100.00;52627.47;5099032;28;20354;-71
2023/12/27 09:27:34;;;;;;;;;;;;;;;-144.99;100.00;52647.84;5097117;28;19967;-71
2023/12/27 09:30:00;;;;;;;;;;;;;;;-144.99;100.00;52619.31;5090158;28;19997;-71
2023/12/27 09:32:26;;;;;;;;;;;;;;;-144.99;100.00;52623.38;5099438;28;20018;-71
2023/12/27 09:34:54;;;;;;;;;;;;;;;-144.99;100.00;52603.00;5109654;28;19992;-71
2023/12/27 09:37:21;;;;;;;;;;;;;;;-144.99;100.00;52623.38;5105212;28;20015;-72
2023/12/27 09:39:47;;;;;;;;;;;;;;;-144.99;100.00;52625.44;5100741;28;20018;-71
2023/12/27 09:42:15;;;;;;;;;;;;;;;-144.99;100.00;52639.69;5097379;28;20482;-71
2023/12/27 09:44:43;;;;;;;;;;;;;;;-144.99;100.00;52658.03;5096787;28;19928;-71
2023/12/27 09:47:11;;;;;;;;;;;;;;;-144.99;100.00;52631.53;5094863;28;20333;-71
2023/12/27 09:49:37;;;;;;;;;;;;;;;-144.99;100.00;52621.34;5108689;28;20098;-70
2023/12/27 09:52:06;;;;;;;;;;;;;;;-144.99;100.00;52617.28;5102361;28;19935;-71
2023/12/27 09:54:33;;;;;;;;;;;;;;;-144.99;100.00;52666.19;5101674;28;19946;-70
2023/12/27 09:56:59;;;;;;;;;;;;;;;-144.99;100.00;52590.78;5104122;28;19980;-71
2023/12/27 09:59:28;;;;;;;;;;;;;;;-144.99;100.00;52635.63;5101829;27;19962;-70
2023/12/27 10:01:59;;;;;;;;;;;;;;;-144.99;100.00;52605.03;5093184;28;19969;-71
2023/12/27 10:04:31;;;;;;;;;;;;;;;-144.99;100.00;52660.09;5104347;28;19928;-71
2023/12/27 10:06:58;;;;;;;;;;;;;;;-144.99;100.00;52635.63;5106656;28;19928;-70
2023/12/27 10:09:26;;;;;;;;;;;;;;;-144.99;100.00;52631.53;5102226;28;20037;-70
2023/12/27 10:11:53;;;;;;;;;;;;;;;-144.99;100.00;52627.47;5103427;28;19967;-70
2023/12/27 10:14:20;;;;;;;;;;;;;;;-144.99;100.00;52635.63;5112529;28;19970;-70
2023/12/27 10:16:46;;;;;;;;;;;;;;;-144.99;100.00;52635.63;5108554;28;19975;-70
2023/12/27 10:19:28;;;;;;;;;;;;;;;-144.99;100.00;52635.63;5104195;28;19932;-70
2023/12/27 10:21:54;;;;;;;;;;;;;;;-144.99;100.00;52635.63;5095691;28;19924;-69
2023/12/27 10:24:21;;;;;;;;;;;;;;;-144.99;100.00;52645.81;5095328;28;19962;-70
2023/12/27 10:26:48;;;;;;;;;;;;;;;-144.99;100.00;52615.25;5096487;28;19991;-70
2023/12/27 10:29:17;;;;;;;;;;;;;;;-144.99;100.00;52574.47;5094476;28;20235;-69
2023/12/27 10:31:43;;;;;;;;;;;;;;;-144.99;100.00;52639.69;5095224;28;20024;-70
2023/12/27 10:34:09;;;;;;;;;;;;;;;-144.99;100.00;52633.59;5105580;28;19971;-69
2023/12/27 10:36:39;;;;;;;;;;;;;;;-144.99;100.00;52607.09;5091260;28;19978;-70
2023/12/27 10:39:06;;;;;;;;;;;;;;;-144.99;100.00;52678.44;5102078;28;19938;-70
2023/12/27 10:41:32;;;;;;;;;;;;;;;-144.99;100.00;52631.53;5107039;28;19978;-70
2023/12/27 10:44:04;;;;;;;;;;;;;;;-144.99;100.00;52664.16;5100547;28;20024;-70
2023/12/27 10:46:31;;;;;;;;;;;;;;;-144.99;100.00;52666.19;5098968;28;19934;-70
2023/12/27 10:49:01;;;;;;;;;;;;;;;-144.99;100.00;52631.53;5098776;28;19959;-69
2023/12/27 10:51:29;;;;;;;;;;;;;;;-144.99;100.00;52611.16;5102257;28;19928;-69
2023/12/27 10:53:58;;;;;;;;;;;;;;;-144.99;100.00;52660.09;5091052;28;19968;-69
2023/12/27 10:56:26;;;;;;;;;;;;;;;-144.99;100.00;52651.94;5108342;28;20469;-70
2023/12/27 10:58:53;;;;;;;;;;;;;;;-144.99;100.00;52641.72;5089739;28;20361;-69
2023/12/27 11:01:21;;;;;;;;;;;;;;;-144.99;100.00;52643.78;5109269;27;20015;-71
2023/12/27 11:03:48;;;;;;;;;;;;;;;-144.99;100.00;52603.00;5103194;28;19955;-69
2023/12/27 11:06:16;;;;;;;;;;;;;;;-144.99;100.00;52627.47;5106327;28;20499;-70
2023/12/27 11:08:44;;;;;;;;;;;;;;;-144.99;100.00;52598.94;5106580;28;20014;-69
2023/12/27 11:11:13;;;;;;;;;;;;;;;-144.99;100.00;52645.81;5099174;28;20010;-69
2023/12/27 11:13:40;;;;;;;;;;;;;;;-144.99;100.00;52615.25;5096501;28;19938;-69
2023/12/27 11:16:07;;;;;;;;;;;;;;;-144.99;100.00;52625.44;5094679;28;19971;-69
2023/12/27 11:18:36;;;;;;;;;;;;;;;-144.99;100.00;52598.94;5099264;28;19939;-70
2023/12/27 11:21:02;;;;;;;;;;;;;;;-144.99;100.00;52619.31;5101643;28;20031;-70
2023/12/27 11:23:29;;;;;;;;;;;;;;;-144.99;100.00;52609.13;5099740;28;19924;-70
2023/12/27 11:25:59;;;;;;;;;;;;;;;-144.99;100.00;52647.84;5100412;28;20416;-69
2023/12/27 11:28:26;;;;;;;;;;;;;;;-144.99;100.00;52639.69;5098647;28;19923;-70
2023/12/27 11:30:53;;;;;;;;;;;;;;;-144.99;100.00;52631.53;5101102;28;20347;-69
2023/12/27 11:33:21;;;;;;;;;;;;;;;-144.99;100.00;52631.53;5096479;28;20023;-69
2023/12/27 11:35:49;;;;;;;;;;;;;;;-144.99;100.00;52578.53;5110163;28;19970;-70
2023/12/27 11:38:18;;;;;;;;;;;;;;;-144.99;100.00;52617.28;5108175;28;20035;-70
2023/12/27 11:40:44;;;;;;;;;;;;;;;-144.99;100.00;52649.88;5104186;28;20424;-69
2023/12/27 11:43:11;;;;;;;;;;;;;;;-144.99;100.00;52643.78;5095323;28;20396;-69
2023/12/27 11:45:55;;;;;;;;;;;;;;;-144.99;100.00;52627.47;5100383;28;20364;-69
2023/12/27 11:48:22;;;;;;;;;;;;;;;-144.99;100.00;52615.25;5101640;28;20015;-70
2023/12/27 11:50:49;;;;;;;;;;;;;;;-144.99;100.00;52611.16;5100539;28;20062;-70
2023/12/27 11:53:18;;;;;;;;;;;;;;;-144.99;100.00;52584.66;5100353;28;20032;-70
2023/12/27 11:55:46;;;;;;;;;;;;;;;-144.99;100.00;52680.47;5093859;28;19928;-70
2023/12/27 11:58:14;;;;;;;;;;;;;;;-144.99;100.00;52619.31;5099525;28;20019;-70
2023/12/27 12:00:41;;;;;;;;;;;;;;;-144.99;100.00;52611.16;5103958;28;20046;-70
2023/12/27 12:03:13;;;;;;;;;;;;;;;-144.99;100.00;52623.38;5103695;28;19931;-70
2023/12/27 12:05:58;;;;;;;;;;;;;;;-144.99;100.00;52656.00;5105617;28;20294;-70
2023/12/27 12:08:29;;;;;;;;;;;;;;;-144.99;100.00;52656.00;5101500;28;20001;-69
2023/12/27 12:11:05;;;;;;;;;;;;;;;-144.99;100.00;52639.69;5091111;28;19967;-70
2023/12/27 12:13:32;;;;;;;;;;;;;;;-144.99;100.00;52609.13;5095246;28;20490;-70
2023/12/27 12:15:58;;;;;;;;;;;;;;;-144.99;100.00;52627.47;5107101;28;19935;-70
2023/12/27 12:18:26;;;;;;;;;;;;;;;-144.99;100.00;52664.16;5107336;28;19959;-70